Time;durP1;ratioP1;P1;durP2;ratioP2;P2;SDS_P1;SDS_P2;PMS_P1;PMS_P2;Temp;Humidity;BMP_temperature;BMP_pressure;BME280_temperature;BME280_humidity;BME280_pressure;Samples;Min_cycle;Max_cycle;Signal;HPM_P1;HPM_P2
2021/12/24 00:01:05;;;;;;;3.75;2.30;;;21.30;31.40;;;;;;5060226;28;20890;-66
2021/12/24 00:03:30;;;;;;;3.92;2.45;;;21.30;31.40;;;;;;5063633;28;20400;-66
2021/12/24 00:05:56;;;;;;;3.90;2.30;;;21.30;31.40;;;;;;5053404;28;20404;-66
2021/12/24 00:08:22;;;;;;;3.20;2.15;;;21.30;31.30;;;;;;5065546;28;20412;-66
2021/12/24 00:10:56;;;;;;;3.28;2.20;;;21.30;31.50;;;;;;5057821;28;20884;-66
2021/12/24 00:13:22;;;;;;;3.35;2.35;;;21.30;31.50;;;;;;5052501;28;20391;-66
2021/12/24 00:37:05;;;;;;;3.20;1.70;;;21.20;31.60;;;;;;5046572;28;20415;-66
2021/12/24 00:39:31;;;;;;;2.57;1.90;;;21.30;31.60;;;;;;5049201;28;20385;-68
2021/12/24 00:41:57;;;;;;;2.70;1.75;;;21.20;31.60;;;;;;5045572;28;20447;-66
2021/12/24 00:44:23;;;;;;;2.92;1.90;;;21.20;31.60;;;;;;5080324;28;20423;-66
2021/12/24 00:46:48;;;;;;;2.50;1.80;;;21.20;32.20;;;;;;5070436;28;20765;-66
2021/12/24 00:49:14;;;;;;;2.30;1.67;;;21.20;31.60;;;;;;5076559;28;20416;-67
2021/12/24 00:52:07;;;;;;;2.43;1.77;;;21.20;31.50;;;;;;5079646;28;20473;-71
2021/12/24 00:57:20;;;;;;;2.20;1.40;;;21.20;31.40;;;;;;5090265;28;20424;-66
2021/12/24 00:59:46;;;;;;;2.30;1.60;;;21.20;31.60;;;;;;5091416;28;20382;-67
2021/12/24 01:02:12;;;;;;;2.20;1.60;;;21.20;31.70;;;;;;5095267;28;20402;-66
2021/12/24 01:04:38;;;;;;;2.50;1.60;;;21.20;31.70;;;;;;5095264;28;20385;-66
2021/12/24 01:07:03;;;;;;;2.63;1.60;;;21.20;31.70;;;;;;5095154;28;20750;-66
2021/12/24 01:09:29;;;;;;;2.25;1.58;;;21.20;31.70;;;;;;5094751;28;20885;-66
2021/12/24 01:11:55;;;;;;;2.53;1.70;;;21.10;31.70;;;;;;5095209;28;20382;-66
2021/12/24 01:14:22;;;;;;;2.70;1.58;;;21.10;31.70;;;;;;5095009;28;20788;-66
2021/12/24 01:17:55;;;;;;;2.28;1.42;;;21.20;31.70;;;;;;5076803;28;20505;-65
2021/12/24 01:19:46;;;;;;;2.03;1.30;;;21.10;31.60;;;;;;5085457;28;20433;-66
2021/12/24 01:25:05;;;;;;;2.08;1.40;;;21.10;31.70;;;;;;5095162;28;20869;-66
2021/12/24 01:38:21;;;;;;;2.40;1.30;;;21.10;31.70;;;;;;5095015;28;20440;-66
2021/12/24 01:43:22;;;;;;;2.08;1.30;;;21.10;31.80;;;;;;5094009;28;20463;-66
2021/12/24 01:45:50;;;;;;;2.25;1.30;;;21.20;31.80;;;;;;5094606;28;20398;-66
2021/12/24 01:48:17;;;;;;;2.10;1.20;;;21.10;31.80;;;;;;5094464;28;20920;-68
2021/12/24 01:50:46;;;;;;;1.95;1.33;;;21.10;31.80;;;;;;5094312;28;20402;-68
2021/12/24 01:53:16;;;;;;;2.17;1.20;;;21.10;31.90;;;;;;5094103;28;20427;-68
2021/12/24 01:55:44;;;;;;;1.90;1.30;;;21.10;31.90;;;;;;5093955;28;20386;-68
2021/12/24 01:58:10;;;;;;;1.90;1.20;;;21.10;31.90;;;;;;5094287;28;20390;-68
2021/12/24 02:00:43;;;;;;;1.92;1.30;;;21.10;31.90;;;;;;5094192;28;20731;-68
2021/12/24 02:03:10;;;;;;;2.00;1.23;;;21.10;31.80;;;;;;5094141;28;20436;-68
2021/12/24 02:05:36;;;;;;;2.03;1.20;;;21.10;31.80;;;;;;5093878;28;20788;-68
2021/12/24 02:08:03;;;;;;;1.73;1.13;;;21.10;31.80;;;;;;5094086;28;20469;-68
2021/12/24 02:10:29;;;;;;;1.67;1.23;;;21.10;31.80;;;;;;5094084;28;20397;-68
2021/12/24 02:12:55;;;;;;;1.83;1.20;;;21.10;31.80;;;;;;5075511;28;20777;-68
2021/12/24 02:15:42;;;;;;;2.25;1.30;;;21.10;31.80;;;;;;5093532;28;20890;-68
2021/12/24 02:28:48;;;;;;;1.58;1.02;;;21.10;31.80;;;;;;5093700;28;20392;-68
2021/12/24 02:31:17;;;;;;;1.88;1.10;;;21.10;31.90;;;;;;5093438;28;20394;-68
2021/12/24 02:33:43;;;;;;;2.33;1.20;;;21.10;31.90;;;;;;5075253;28;20399;-68
2021/12/24 02:36:09;;;;;;;1.92;1.17;;;21.10;31.90;;;;;;5075431;28;20441;-69
2021/12/24 02:38:36;;;;;;;1.90;1.20;;;21.00;31.90;;;;;;5093519;28;20382;-68
2021/12/24 02:41:03;;;;;;;1.63;1.00;;;21.10;31.90;;;;;;5092933;28;20477;-68
2021/12/24 02:43:29;;;;;;;1.60;1.00;;;21.10;31.90;;;;;;5092311;28;20747;-68
2021/12/24 02:45:58;;;;;;;1.60;1.00;;;21.00;32.00;;;;;;5093374;28;20741;-68
2021/12/24 02:53:59;;;;;;;2.20;1.20;;;21.00;31.80;;;;;;5093239;28;20390;-68
2021/12/24 02:56:33;;;;;;;1.50;1.00;;;21.00;31.90;;;;;;5092880;28;20406;-69
2021/12/24 02:59:01;;;;;;;1.42;0.90;;;21.00;31.90;;;;;;5093212;28;20766;-68
2021/12/24 03:01:30;;;;;;;1.50;1.00;;;21.00;31.90;;;;;;5092656;28;20393;-68
2021/12/24 03:03:56;;;;;;;1.70;1.00;;;21.00;31.90;;;;;;5093132;28;20937;-67
2021/12/24 03:06:26;;;;;;;1.83;1.02;;;21.00;31.90;;;;;;5092994;28;20422;-67
2021/12/24 03:08:52;;;;;;;1.77;1.05;;;21.00;31.90;;;;;;5092822;28;20428;-68
2021/12/24 03:11:19;;;;;;;1.90;1.10;;;21.00;31.90;;;;;;5092608;28;20386;-67
2021/12/24 03:13:45;;;;;;;2.10;1.00;;;21.00;31.90;;;;;;5092589;28;20424;-68
2021/12/24 03:16:10;;;;;;;2.60;1.15;;;21.00;31.90;;;;;;5092792;28;20409;-68
2021/12/24 03:18:39;;;;;;;1.60;0.90;;;21.00;31.90;;;;;;5092727;28;20773;-68
2021/12/24 03:21:11;;;;;;;1.40;1.00;;;21.00;31.90;;;;;;5074448;28;20477;-68
2021/12/24 03:23:46;;;;;;;1.60;1.02;;;21.00;31.90;;;;;;5073287;28;20397;-68
2021/12/24 03:26:15;;;;;;;2.10;0.98;;;21.00;31.90;;;;;;5092753;28;20390;-69
2021/12/24 03:28:42;;;;;;;1.70;1.00;;;21.00;31.90;;;;;;5092022;28;20389;-68
2021/12/24 03:31:09;;;;;;;1.65;1.10;;;21.00;31.80;;;;;;5092327;28;20382;-68
2021/12/24 03:33:36;;;;;;;1.58;1.08;;;21.00;31.90;;;;;;5073644;28;20387;-69
2021/12/24 03:36:04;;;;;;;1.48;0.80;;;21.00;31.90;;;;;;5074106;28;20441;-68
2021/12/24 03:38:30;;;;;;;1.90;1.00;;;21.00;31.90;;;;;;5073728;28;20934;-67
2021/12/24 03:40:56;;;;;;;1.85;1.10;;;21.00;31.90;;;;;;5092291;28;20440;-68
2021/12/24 03:43:22;;;;;;;1.52;1.02;;;21.00;31.90;;;;;;5073602;28;20393;-68
2021/12/24 03:45:59;;;;;;;1.92;1.00;;;20.90;32.00;;;;;;5092008;28;20412;-68
2021/12/24 03:48:44;;;;;;;1.85;0.90;;;20.90;32.00;;;;;;5092224;28;20401;-68
2021/12/24 03:56:31;;;;;;;1.37;0.97;;;21.00;31.90;;;;;;5092029;28;20846;-68
2021/12/24 03:58:57;;;;;;;1.75;1.02;;;21.00;31.90;;;;;;5091607;28;20429;-68
2021/12/24 04:01:23;;;;;;;2.40;1.13;;;21.00;31.90;;;;;;5091736;28;20477;-68
2021/12/24 04:03:48;;;;;;;1.58;1.00;;;21.00;31.90;;;;;;5091827;28;20386;-68
2021/12/24 04:06:14;;;;;;;1.63;1.00;;;21.00;32.00;;;;;;5091990;28;20945;-67
2021/12/24 04:08:40;;;;;;;1.70;1.00;;;20.90;32.00;;;;;;5091531;28;20390;-68
2021/12/24 04:11:06;;;;;;;1.87;1.07;;;20.90;32.00;;;;;;5091933;28;20386;-68
2021/12/24 04:13:32;;;;;;;1.40;0.90;;;20.90;32.00;;;;;;5073171;28;20421;-69
2021/12/24 04:15:58;;;;;;;2.00;1.10;;;20.90;32.00;;;;;;5091719;28;20402;-68
2021/12/24 04:26:26;;;;;;;1.75;1.00;;;20.90;32.00;;;;;;5091899;28;20443;-68
2021/12/24 04:28:51;;;;;;;1.65;1.00;;;20.90;32.00;;;;;;5091613;28;20386;-68
2021/12/24 04:31:22;;;;;;;2.10;1.10;;;20.90;32.10;;;;;;5091399;28;20396;-68
2021/12/24 04:33:49;;;;;;;1.35;1.00;;;20.90;32.00;;;;;;5091349;28;20451;-67
2021/12/24 04:36:44;;;;;;;2.20;0.90;;;20.90;32.00;;;;;;5091477;28;20409;-68
2021/12/24 05:03:31;;;;;;;1.90;1.07;;;20.90;32.00;;;;;;5091104;28;21047;-68
2021/12/24 05:08:49;;;;;;;2.15;0.90;;;20.90;32.10;;;;;;5091285;28;20472;-68
2021/12/24 05:11:16;;;;;;;1.70;0.90;;;20.90;32.10;;;;;;5091257;28;20392;-68
2021/12/24 05:13:42;;;;;;;1.60;0.90;;;20.80;32.00;;;;;;5090146;28;20382;-68
2021/12/24 05:21:33;;;;;;;1.58;0.90;;;20.90;32.10;;;;;;5070731;28;20390;-69
2021/12/24 05:24:02;;;;;;;1.63;1.00;;;20.90;32.10;;;;;;5091242;28;20447;-68
2021/12/24 05:26:29;;;;;;;1.80;0.90;;;20.90;32.70;;;;;;5091123;28;20829;-68
2021/12/24 05:28:56;;;;;;;2.17;0.90;;;20.90;32.10;;;;;;5091200;28;20469;-67
2021/12/24 05:31:22;;;;;;;1.50;0.80;;;20.90;32.10;;;;;;5079490;28;20907;-69
2021/12/24 05:33:48;;;;;;;1.60;0.98;;;20.90;32.10;;;;;;5070101;28;20423;-68
2021/12/24 05:36:14;;;;;;;1.15;0.80;;;20.90;32.10;;;;;;5070470;28;20439;-68
2021/12/24 05:38:39;;;;;;;1.30;1.00;;;20.90;32.10;;;;;;5070805;28;20404;-68
2021/12/24 05:41:05;;;;;;;1.65;0.90;;;20.90;32.10;;;;;;5052959;28;20779;-68
2021/12/24 05:43:31;;;;;;;1.23;0.82;;;20.80;32.00;;;;;;5069996;28;20423;-68
2021/12/24 05:45:57;;;;;;;1.30;0.90;;;20.80;32.10;;;;;;5071042;28;20886;-68
2021/12/24 05:48:22;;;;;;;1.60;0.90;;;20.80;32.10;;;;;;5074305;28;20529;-68
2021/12/24 05:50:48;;;;;;;1.60;0.90;;;20.80;32.10;;;;;;5074231;28;20388;-68
2021/12/24 05:53:14;;;;;;;1.92;1.10;;;20.80;32.10;;;;;;5056299;28;20376;-68
2021/12/24 05:55:40;;;;;;;1.42;0.82;;;20.80;32.10;;;;;;5073685;28;20400;-69
2021/12/24 05:58:07;;;;;;;1.70;1.00;;;20.80;32.00;;;;;;5056038;28;20420;-68
2021/12/24 06:00:36;;;;;;;1.70;0.90;;;20.80;32.10;;;;;;5074030;28;20463;-69
2021/12/24 06:03:02;;;;;;;1.30;0.80;;;20.90;32.10;;;;;;5074037;28;20743;-68
2021/12/24 06:05:28;;;;;;;1.70;0.90;;;20.80;32.00;;;;;;5064887;28;20761;-68
2021/12/24 06:07:53;;;;;;;2.60;0.90;;;20.90;31.90;;;;;;5053191;28;20392;-67
2021/12/24 06:10:19;;;;;;;3.90;0.90;;;20.90;32.10;;;;;;5035204;28;20389;-68
2021/12/24 06:12:45;;;;;;;1.42;0.93;;;21.00;32.30;;;;;;5035972;28;20389;-68
2021/12/24 06:15:10;;;;;;;2.43;0.90;;;21.10;32.30;;;;;;5053693;28;20397;-68
2021/12/24 06:17:38;;;;;;;4.85;1.95;;;21.10;33.00;;;;;;5035256;28;20905;-67
2021/12/24 06:20:08;;;;;;;3.88;2.00;;;21.20;33.00;;;;;;5054139;28;20440;-67
2021/12/24 06:22:34;;;;;;;4.85;1.42;;;21.20;33.70;;;;;;5053585;28;20413;-67
2021/12/24 06:25:01;;;;;;;2.80;1.23;;;21.20;33.10;;;;;;5053631;28;20865;-67
2021/12/24 06:27:26;;;;;;;3.67;1.30;;;21.20;33.20;;;;;;5052806;28;20436;-68
2021/12/24 06:29:52;;;;;;;4.70;1.13;;;21.20;33.30;;;;;;5052524;28;20413;-70
2021/12/24 06:32:18;;;;;;;4.55;1.15;;;21.20;34.00;;;;;;5053435;28;20444;-66
2021/12/24 06:34:43;;;;;;;2.77;1.40;;;21.30;34.60;;;;;;5053070;28;20382;-66
2021/12/24 06:37:09;;;;;;;4.72;1.20;;;21.30;35.30;;;;;;5035490;28;20777;-66
2021/12/24 06:39:35;;;;;;;3.15;1.20;;;21.40;35.30;;;;;;5052126;28;20750;-67
2021/12/24 06:42:02;;;;;;;4.00;1.17;;;21.50;35.60;;;;;;5056042;28;20809;-67
2021/12/24 06:44:28;;;;;;;4.68;1.23;;;21.40;35.60;;;;;;5055238;28;20400;-67
2021/12/24 06:46:54;;;;;;;3.70;1.23;;;21.50;36.20;;;;;;5073073;28;20879;-67
2021/12/24 06:49:20;;;;;;;1.98;1.00;;;21.50;36.20;;;;;;5055172;28;20392;-68
2021/12/24 06:51:46;;;;;;;2.27;1.20;;;21.60;36.30;;;;;;5054466;28;20384;-67
2021/12/24 06:54:11;;;;;;;2.53;0.93;;;21.60;36.20;;;;;;5054973;28;20400;-67
2021/12/24 06:56:38;;;;;;;4.18;0.98;;;21.70;36.30;;;;;;5079797;28;20418;-67
2021/12/24 06:59:04;;;;;;;3.00;0.90;;;21.70;36.20;;;;;;5073714;28;20390;-67
2021/12/24 07:01:29;;;;;;;3.45;1.00;;;21.70;35.00;;;;;;5093075;28;20485;-68
2021/12/24 07:03:55;;;;;;;8.27;1.20;;;21.60;35.80;;;;;;5093097;28;20473;-67
2021/12/24 07:06:22;;;;;;;7.22;1.20;;;21.60;35.00;;;;;;5093133;28;20382;-68
2021/12/24 07:08:48;;;;;;;4.80;0.97;;;21.60;35.70;;;;;;5092557;28;20431;-68
2021/12/24 07:11:14;;;;;;;2.30;1.20;;;21.70;35.80;;;;;;5061294;28;20444;-67
2021/12/24 07:13:40;;;;;;;7.15;1.50;;;21.70;35.70;;;;;;5043992;28;20392;-68
2021/12/24 07:16:06;;;;;;;3.80;1.30;;;21.80;35.60;;;;;;5062517;28;20467;-68
2021/12/24 07:18:31;;;;;;;4.80;1.50;;;21.80;35.60;;;;;;5061066;28;20391;-68
2021/12/24 07:20:57;;;;;;;2.95;1.42;;;21.80;35.60;;;;;;5061241;28;20390;-68
2021/12/24 07:23:23;;;;;;;5.00;1.40;;;21.80;35.40;;;;;;5056804;28;20425;-68
2021/12/24 07:25:49;;;;;;;4.80;1.50;;;21.80;35.20;;;;;;5051865;28;20434;-67
2021/12/24 07:28:14;;;;;;;3.80;1.50;;;21.80;35.60;;;;;;5052345;28;20479;-67
2021/12/24 07:30:40;;;;;;;6.80;1.70;;;21.80;35.70;;;;;;5052210;28;20435;-68
2021/12/24 07:33:06;;;;;;;4.37;1.40;;;21.80;36.00;;;;;;5052392;28;20405;-66
2021/12/24 07:35:31;;;;;;;2.75;1.40;;;21.90;35.80;;;;;;5051738;28;20430;-67
2021/12/24 07:37:57;;;;;;;5.07;1.40;;;21.90;36.10;;;;;;5052039;28;20456;-66
2021/12/24 07:40:25;;;;;;;5.35;1.90;;;21.90;36.10;;;;;;5052189;28;20385;-67
2021/12/24 07:42:51;;;;;;;5.68;1.60;;;21.90;35.90;;;;;;5051656;28;20444;-68
2021/12/24 07:45:18;;;;;;;4.80;1.42;;;21.90;35.60;;;;;;5051130;28;20742;-68
2021/12/24 07:47:44;;;;;;;4.05;1.65;;;21.80;35.00;;;;;;5051297;28;20386;-67
2021/12/24 07:52:55;;;;;;;4.10;1.65;;;21.80;35.50;;;;;;5051984;28;20412;-68
2021/12/24 07:55:20;;;;;;;4.70;1.40;;;21.80;35.50;;;;;;5051612;28;20385;-68
2021/12/24 07:57:49;;;;;;;7.43;1.67;;;21.80;35.60;;;;;;5051103;28;20550;-68
2021/12/24 08:00:16;;;;;;;3.45;1.50;;;21.80;35.60;;;;;;5052116;28;20393;-68
2021/12/24 08:02:42;;;;;;;4.47;1.38;;;21.90;35.20;;;;;;5051719;28;20399;-68
2021/12/24 08:05:08;;;;;;;3.92;1.38;;;21.80;35.00;;;;;;5033738;28;20474;-68
2021/12/24 08:07:33;;;;;;;4.93;1.50;;;21.80;35.00;;;;;;5051556;28;20390;-72
2021/12/24 08:09:59;;;;;;;3.80;1.40;;;21.80;35.10;;;;;;5073131;28;20386;-68
2021/12/24 08:12:25;;;;;;;3.40;1.50;;;21.80;35.70;;;;;;5092002;28;20389;-68
2021/12/24 08:14:50;;;;;;;4.25;1.58;;;21.80;35.80;;;;;;5073648;28;20393;-68
2021/12/24 08:17:16;;;;;;;3.38;1.63;;;21.80;35.00;;;;;;5090270;28;20429;-69
2021/12/24 08:19:42;;;;;;;8.00;1.90;;;21.90;35.90;;;;;;5069536;28;20395;-68
2021/12/24 08:22:10;;;;;;;4.95;1.88;;;21.90;36.70;;;;;;5041212;28;20404;-71
2021/12/24 08:24:36;;;;;;;5.40;1.70;;;21.90;37.90;;;;;;5071370;28;20415;-69
2021/12/24 08:27:02;;;;;;;5.18;1.67;;;21.80;37.20;;;;;;5071446;28;20438;-68
2021/12/24 08:29:28;;;;;;;3.80;1.60;;;21.80;37.10;;;;;;5071285;28;20384;-69
2021/12/24 08:31:54;;;;;;;4.18;1.60;;;21.80;36.70;;;;;;5053234;28;20395;-69
2021/12/24 08:34:20;;;;;;;3.75;1.42;;;21.80;36.60;;;;;;5071141;28;20752;-68
2021/12/24 08:36:48;;;;;;;3.20;1.52;;;21.80;38.60;;;;;;5053339;28;20442;-70
2021/12/24 08:39:16;;;;;;;3.22;1.60;;;21.80;38.00;;;;;;5071542;28;20914;-68
2021/12/24 08:41:42;;;;;;;4.15;1.50;;;21.70;35.50;;;;;;5052764;28;20391;-68
2021/12/24 08:44:08;;;;;;;4.97;1.80;;;21.70;35.50;;;;;;5053015;28;20486;-68
2021/12/24 08:46:36;;;;;;;3.47;1.40;;;21.70;36.00;;;;;;5071179;28;20479;-69
2021/12/24 08:49:02;;;;;;;4.22;1.73;;;21.70;36.10;;;;;;5071182;28;20388;-68
2021/12/24 08:51:28;;;;;;;4.60;1.58;;;21.70;37.10;;;;;;5053211;28;20430;-69
2021/12/24 08:53:54;;;;;;;5.23;1.80;;;21.70;35.80;;;;;;5070789;28;20391;-68
2021/12/24 08:56:22;;;;;;;3.42;1.77;;;21.70;36.20;;;;;;5070593;28;20411;-68
2021/12/24 08:58:47;;;;;;;3.95;1.70;;;21.70;36.40;;;;;;5071043;28;20403;-68
2021/12/24 09:01:13;;;;;;;3.10;1.63;;;21.70;36.20;;;;;;5053165;28;20783;-68
2021/12/24 09:03:39;;;;;;;3.95;1.70;;;21.70;36.10;;;;;;5070792;28;20383;-68
2021/12/24 09:06:04;;;;;;;3.92;1.80;;;21.60;36.50;;;;;;5052676;28;20396;-68
2021/12/24 09:08:30;;;;;;;3.90;1.80;;;21.70;35.70;;;;;;5070657;28;20406;-68
2021/12/24 09:10:55;;;;;;;3.85;1.70;;;21.70;36.40;;;;;;5071057;28;20391;-72
2021/12/24 09:13:21;;;;;;;6.60;2.00;;;21.70;37.90;;;;;;5052899;28;20398;-68
2021/12/24 09:15:47;;;;;;;5.15;1.90;;;21.70;38.90;;;;;;5070121;28;20753;-68
2021/12/24 09:18:13;;;;;;;4.57;1.73;;;21.80;39.20;;;;;;5052551;28;20907;-68
2021/12/24 09:20:42;;;;;;;4.85;1.90;;;21.80;39.40;;;;;;5070815;28;20438;-71
2021/12/24 09:23:09;;;;;;;7.07;1.80;;;21.80;38.00;;;;;;5056628;28;20407;-69
2021/12/24 09:25:35;;;;;;;4.95;1.80;;;21.70;37.10;;;;;;5067707;28;20395;-69
2021/12/24 09:28:02;;;;;;;3.95;1.65;;;21.70;37.00;;;;;;5038511;28;20393;-69
2021/12/24 09:30:28;;;;;;;3.40;1.77;;;21.60;35.70;;;;;;5036708;28;21005;-69
2021/12/24 09:32:54;;;;;;;3.85;1.90;;;21.60;35.40;;;;;;5054589;28;20394;-69
2021/12/24 09:35:22;;;;;;;4.85;1.88;;;21.60;35.00;;;;;;5036285;28;20912;-70
2021/12/24 09:37:48;;;;;;;3.60;1.80;;;21.50;34.80;;;;;;5034822;28;20432;-68
2021/12/24 09:40:15;;;;;;;4.18;1.77;;;21.50;34.40;;;;;;5053370;28;20385;-69
2021/12/24 09:42:41;;;;;;;4.93;2.00;;;21.50;34.20;;;;;;5052906;28;20405;-69
2021/12/24 09:45:08;;;;;;;3.78;1.70;;;21.50;34.30;;;;;;5051812;28;20386;-69
2021/12/24 09:47:34;;;;;;;3.85;1.90;;;21.40;34.30;;;;;;5052746;28;20390;-69
2021/12/24 09:50:03;;;;;;;3.15;1.70;;;21.40;34.60;;;;;;5051946;28;20412;-70
2021/12/24 09:52:30;;;;;;;5.20;1.75;;;21.40;33.90;;;;;;5053097;28;20393;-68
2021/12/24 09:54:56;;;;;;;3.45;1.75;;;21.40;33.70;;;;;;5053076;28;20854;-70
2021/12/24 09:57:22;;;;;;;2.83;1.63;;;21.40;33.70;;;;;;5053034;28;20929;-69
2021/12/24 09:59:47;;;;;;;2.70;1.70;;;21.40;33.70;;;;;;5052567;28;20799;-70
2021/12/24 10:02:16;;;;;;;2.63;1.80;;;21.40;33.60;;;;;;5052896;28;20397;-69
2021/12/24 10:04:44;;;;;;;3.15;1.90;;;21.40;33.60;;;;;;5052652;28;20396;-69
2021/12/24 10:07:12;;;;;;;4.60;2.10;;;21.40;33.60;;;;;;5052660;28;20440;-69
2021/12/24 10:09:44;;;;;;;2.70;2.00;;;21.40;33.60;;;;;;5034598;28;20634;-69
2021/12/24 10:12:16;;;;;;;3.38;1.80;;;21.30;33.60;;;;;;5051250;28;20423;-69
2021/12/24 10:14:48;;;;;;;2.80;1.85;;;21.20;33.40;;;;;;5052472;28;20454;-69
2021/12/24 10:17:23;;;;;;;4.93;2.50;;;21.30;33.50;;;;;;5052073;28;20425;-71
2021/12/24 10:19:58;;;;;;;5.10;1.92;;;21.20;33.30;;;;;;5051854;28;20420;-68
2021/12/24 10:22:25;;;;;;;3.72;2.00;;;21.20;33.20;;;;;;5052159;28;20882;-69
2021/12/24 10:25:03;;;;;;;3.25;2.10;;;21.20;33.20;;;;;;5052440;28;20896;-74
2021/12/24 10:27:31;;;;;;;3.67;1.90;;;21.30;33.30;;;;;;5052369;28;20404;-69
2021/12/24 10:29:58;;;;;;;3.28;1.90;;;21.20;33.30;;;;;;5051455;28;20425;-69
2021/12/24 10:32:25;;;;;;;4.10;1.80;;;21.20;33.90;;;;;;5033450;28;20410;-78
2021/12/24 10:34:50;;;;;;;4.70;2.05;;;21.20;33.80;;;;;;5034034;28;20397;-73
2021/12/24 10:37:26;;;;;;;3.67;2.03;;;21.20;34.20;;;;;;5055097;28;20439;-73
2021/12/24 10:39:56;;;;;;;4.43;2.00;;;21.30;34.00;;;;;;5053739;28;20744;-68
2021/12/24 10:42:27;;;;;;;4.60;1.90;;;21.30;34.00;;;;;;5050418;28;20402;-68
2021/12/24 10:44:54;;;;;;;3.28;1.90;;;21.30;33.80;;;;;;5050812;28;20781;-73
2021/12/24 10:47:26;;;;;;;2.83;1.83;;;21.30;33.80;;;;;;5051720;28;20453;-69
2021/12/24 10:50:24;;;;;;;3.33;2.20;;;21.30;33.80;;;;;;5050469;28;20390;-77
2021/12/24 10:53:11;;;;;;;3.55;1.85;;;21.30;33.20;;;;;;5050718;28;20401;-79
2021/12/24 10:55:44;;;;;;;4.13;1.85;;;21.30;33.50;;;;;;5051826;28;20397;-71
2021/12/24 10:58:16;;;;;;;3.53;1.85;;;21.30;33.60;;;;;;5051987;28;20415;-69
2021/12/24 11:00:54;;;;;;;4.40;1.90;;;21.30;33.40;;;;;;5051589;28;20452;-69
2021/12/24 11:03:23;;;;;;;3.50;1.92;;;21.30;33.30;;;;;;5051660;28;20397;-68
2021/12/24 11:05:55;;;;;;;3.80;2.20;;;21.30;33.30;;;;;;5051166;28;20488;-69
2021/12/24 11:08:27;;;;;;;4.28;2.00;;;21.30;33.30;;;;;;5051572;28;20389;-68
2021/12/24 11:10:58;;;;;;;3.40;1.98;;;21.30;33.30;;;;;;5052770;28;20397;-68
2021/12/24 11:13:32;;;;;;;4.50;2.13;;;21.30;33.20;;;;;;5052719;28;20386;-70
2021/12/24 11:16:02;;;;;;;3.22;2.00;;;21.30;33.30;;;;;;5051090;28;20805;-69
2021/12/24 11:18:39;;;;;;;3.42;2.03;;;21.30;33.30;;;;;;5051186;28;20893;-69
2021/12/24 11:21:10;;;;;;;3.88;2.20;;;21.20;33.40;;;;;;5052338;28;20480;-70
2021/12/24 11:23:38;;;;;;;2.75;1.90;;;21.20;33.40;;;;;;5052590;28;20404;-69
2021/12/24 11:26:05;;;;;;;3.50;2.30;;;21.20;33.50;;;;;;5052354;28;20484;-68
2021/12/24 11:28:33;;;;;;;3.13;2.10;;;21.20;33.50;;;;;;5052370;28;20385;-68
2021/12/24 11:31:21;;;;;;;3.00;2.20;;;21.20;33.40;;;;;;5052290;28;20737;-69
2021/12/24 11:33:48;;;;;;;3.90;2.10;;;21.20;33.50;;;;;;5052057;28;20456;-68
2021/12/24 11:36:17;;;;;;;4.13;2.58;;;21.20;33.50;;;;;;5052117;28;20471;-68
2021/12/24 11:38:54;;;;;;;3.30;2.75;;;21.20;33.50;;;;;;5052316;28;20403;-69
2021/12/24 11:41:25;;;;;;;4.88;4.05;;;21.20;33.40;;;;;;5052197;28;20378;-69
2021/12/24 11:43:52;;;;;;;16.40;9.80;;;21.20;33.20;;;;;;5066834;28;20489;-69
2021/12/24 11:46:21;;;;;;;20.23;11.35;;;21.30;33.70;;;;;;5072024;28;20391;-68
2021/12/24 11:48:49;;;;;;;20.33;11.55;;;21.30;33.50;;;;;;5071194;28;20399;-68
2021/12/24 11:51:22;;;;;;;19.80;11.00;;;21.30;34.00;;;;;;5062118;28;20400;-69
2021/12/24 11:53:51;;;;;;;20.58;11.48;;;21.30;33.50;;;;;;5070872;28;20402;-68
2021/12/24 11:56:17;;;;;;;19.98;11.50;;;21.30;33.50;;;;;;5070296;28;20398;-68
2021/12/24 11:59:03;;;;;;;19.57;12.03;;;21.30;33.50;;;;;;5070924;28;20395;-69
2021/12/24 12:01:38;;;;;;;23.30;13.68;;;21.20;33.40;;;;;;5068815;28;20410;-69
2021/12/24 12:04:21;;;;;;;21.33;14.38;;;21.20;33.50;;;;;;5070737;28;20441;-68
2021/12/24 12:06:47;;;;;;;21.73;16.15;;;21.20;33.50;;;;;;5071156;28;20491;-69
2021/12/24 12:09:13;;;;;;;22.48;17.58;;;21.20;33.60;;;;;;5053260;28;20400;-68
2021/12/24 12:11:41;;;;;;;23.63;18.77;;;21.20;33.60;;;;;;5070943;28;20398;-68
2021/12/24 12:14:23;;;;;;;24.58;18.83;;;21.20;33.50;;;;;;5071085;28;20395;-68
2021/12/24 12:16:55;;;;;;;25.85;20.02;;;21.20;33.60;;;;;;5070891;28;20437;-68
2021/12/24 12:19:47;;;;;;;23.08;19.90;;;21.20;33.50;;;;;;5071056;28;20945;-68
2021/12/24 12:22:46;;;;;;;23.13;19.40;;;21.20;33.50;;;;;;5070842;28;20521;-68
2021/12/24 12:25:28;;;;;;;25.52;20.05;;;21.20;33.50;;;;;;5057651;28;20771;-69
2021/12/24 12:27:58;;;;;;;22.92;20.13;;;21.20;33.50;;;;;;5052460;28;20400;-69
2021/12/24 12:30:42;;;;;;;23.48;19.88;;;21.20;33.40;;;;;;5070955;28;20406;-69
2021/12/24 12:33:32;;;;;;;22.90;19.10;;;21.20;33.40;;;;;;5053133;28;20399;-69
2021/12/24 12:36:02;;;;;;;21.60;18.85;;;21.20;33.40;;;;;;5070348;28;20433;-69
2021/12/24 12:38:44;;;;;;;22.65;18.55;;;21.20;33.40;;;;;;5053060;28;20396;-69
2021/12/24 12:41:33;;;;;;;22.92;18.75;;;21.10;33.50;;;;;;5052850;28;20449;-68
2021/12/24 12:44:04;;;;;;;22.02;18.55;;;21.20;33.50;;;;;;5057061;28;20414;-69
2021/12/24 12:46:36;;;;;;;22.40;17.70;;;21.20;33.50;;;;;;5051404;28;20381;-68
2021/12/24 12:49:05;;;;;;;19.98;17.80;;;21.20;33.40;;;;;;5065762;28;20919;-68
2021/12/24 12:51:54;;;;;;;20.10;17.60;;;21.20;33.50;;;;;;5059672;28;20392;-68
2021/12/24 12:54:30;;;;;;;21.23;17.85;;;21.20;33.40;;;;;;5037065;28;20488;-69
2021/12/24 12:57:21;;;;;;;21.75;17.98;;;21.20;33.50;;;;;;5054133;28;20809;-69
2021/12/24 13:00:05;;;;;;;23.30;17.80;;;21.10;35.00;;;;;;5047792;28;20399;-69
2021/12/24 13:05:32;;;;;;;35.20;19.65;;;21.30;35.30;;;;;;5065010;28;20387;-69
2021/12/24 13:08:11;;;;;;;25.63;19.63;;;21.20;36.30;;;;;;5066416;28;20403;-69
2021/12/24 13:10:37;;;;;;;31.25;19.23;;;21.30;36.30;;;;;;5057750;28;20746;-69
2021/12/24 13:13:05;;;;;;;27.20;18.98;;;21.30;36.40;;;;;;5068950;28;20889;-69
2021/12/24 13:15:34;;;;;;;25.70;18.33;;;21.40;36.50;;;;;;5063562;28;20427;-69
2021/12/24 13:18:05;;;;;;;30.55;19.10;;;21.40;36.20;;;;;;5042678;28;20874;-69
2021/12/24 13:22:26;;;;;;;25.60;18.00;;;21.40;36.40;;;;;;5070862;28;20474;-69
2021/12/24 13:23:20;;;;;;;27.15;18.10;;;21.50;35.40;;;;;;5060914;28;20453;-70
2021/12/24 13:25:46;;;;;;;28.08;17.85;;;21.40;36.80;;;;;;5044770;28;20424;-69
2021/12/24 13:28:12;;;;;;;27.97;16.83;;;21.50;36.20;;;;;;5068462;28;20891;-69
2021/12/24 13:30:37;;;;;;;26.70;18.05;;;21.50;36.20;;;;;;5057145;28;20393;-69
2021/12/24 13:33:07;;;;;;;25.27;16.93;;;21.50;36.70;;;;;;5050613;28;20382;-70
2021/12/24 13:35:45;;;;;;;28.98;17.42;;;21.40;36.70;;;;;;5045528;28;20398;-71
2021/12/24 13:38:15;;;;;;;28.92;16.38;;;21.50;36.60;;;;;;5059335;28;20421;-70
2021/12/24 13:40:41;;;;;;;25.80;16.10;;;21.50;36.70;;;;;;5072798;28;20387;-70
2021/12/24 13:43:12;;;;;;;25.88;16.05;;;21.50;36.90;;;;;;5067965;28;20416;-69
2021/12/24 13:45:39;;;;;;;26.73;16.35;;;21.50;37.30;;;;;;5053881;28;20386;-69
2021/12/24 13:48:10;;;;;;;24.13;14.80;;;21.50;37.00;;;;;;5053199;28;20397;-69
2021/12/24 13:56:24;;;;;;;22.10;14.23;;;21.50;37.40;;;;;;5057685;28;20409;-69
2021/12/24 13:58:51;;;;;;;18.90;14.70;;;21.50;38.10;;;;;;5022737;28;20407;-69
2021/12/24 14:01:21;;;;;;;20.67;15.02;;;21.40;39.00;;;;;;5066601;28;20389;-70
2021/12/24 14:03:48;;;;;;;22.65;16.23;;;21.40;38.40;;;;;;5064610;28;20469;-69
2021/12/24 14:06:13;;;;;;;23.83;16.77;;;21.40;38.80;;;;;;5058440;28;20439;-69
2021/12/24 14:08:39;;;;;;;20.10;16.05;;;21.40;38.60;;;;;;5051557;28;20391;-69
2021/12/24 14:11:19;;;;;;;22.88;16.70;;;21.40;38.70;;;;;;5041294;28;20462;-68
2021/12/24 14:13:51;;;;;;;20.40;17.63;;;21.40;38.70;;;;;;5062428;28;20400;-69
2021/12/24 14:19:06;;;;;;;20.63;16.98;;;21.40;38.20;;;;;;5041051;28;20437;-69
2021/12/24 14:24:25;;;;;;;21.15;17.05;;;21.40;38.60;;;;;;5066042;28;20410;-70
2021/12/24 14:26:53;;;;;;;23.40;17.75;;;21.40;38.10;;;;;;5040851;28;20509;-70
2021/12/24 14:29:38;;;;;;;22.27;17.42;;;21.30;36.80;;;;;;5065653;28;20393;-70
2021/12/24 14:32:08;;;;;;;30.13;17.55;;;21.30;37.30;;;;;;5052869;28;20394;-70
2021/12/24 14:34:39;;;;;;;126.32;21.08;;;21.30;38.40;;;;;;5069022;28;20380;-71
2021/12/24 14:37:16;;;;;;;59.73;18.53;;;21.30;37.70;;;;;;5058258;28;20412;-68
2021/12/24 14:39:47;;;;;;;48.65;18.30;;;21.30;37.30;;;;;;5062159;28;20377;-67
2021/12/24 14:42:29;;;;;;;42.15;16.10;;;21.30;36.90;;;;;;5067563;28;20387;-71
2021/12/24 14:45:22;;;;;;;35.25;14.80;;;21.20;37.70;;;;;;5040872;28;20432;-71
2021/12/24 14:48:14;;;;;;;35.58;15.38;;;21.20;36.30;;;;;;5050635;28;20952;-72
2021/12/24 14:51:02;;;;;;;30.92;14.38;;;21.20;36.50;;;;;;5056662;28;20416;-71
2021/12/24 14:53:30;;;;;;;28.38;13.85;;;21.20;36.20;;;;;;5048788;28;20394;-76